Time;durP1;ratioP1;P1;durP2;ratioP2;P2;SDS_P1;SDS_P2;PMS_P1;PMS_P2;Temp;Humidity;BMP_temperature;BMP_pressure;BME280_temperature;BME280_humidity;BME280_pressure;Samples;Min_cycle;Max_cycle;Signal;HPM_P1;HPM_P2
2022/03/04 00:00:38;;;;;;;120.82;108.03;;;4.10;70.20;;;;;;5017041;28;19933;-78
2022/03/04 00:03:05;;;;;;;121.38;108.88;;;4.00;69.30;;;;;;5016051;28;20050;-78
2022/03/04 00:05:32;;;;;;;119.20;107.03;;;4.00;69.30;;;;;;5016577;28;20129;-78
2022/03/04 00:07:59;;;;;;;118.57;106.40;;;4.00;69.40;;;;;;5034059;28;20049;-79
2022/03/04 00:10:26;;;;;;;121.10;108.55;;;4.00;69.30;;;;;;5034143;28;20516;-78
2022/03/04 00:12:54;;;;;;;119.30;107.05;;;4.00;69.70;;;;;;5016500;28;20062;-78
2022/03/04 00:15:21;;;;;;;120.07;108.00;;;4.00;69.70;;;;;;5016389;28;20049;-78
2022/03/04 00:17:50;;;;;;;120.55;108.22;;;3.90;69.60;;;;;;5032817;28;20064;-78
2022/03/04 00:20:17;;;;;;;120.53;108.03;;;4.00;69.70;;;;;;5016208;28;20046;-78
2022/03/04 00:22:44;;;;;;;;;;;4.00;69.70;;;;;;5016629;28;20049;-78
2022/03/04 00:25:11;;;;;;;119.20;106.90;;;4.00;70.50;;;;;;5034394;28;19932;-78
2022/03/04 00:27:38;;;;;;;;;;;4.00;69.80;;;;;;5015637;28;20049;-78
2022/03/04 00:30:06;;;;;;;118.28;106.18;;;3.90;69.80;;;;;;5032794;28;19929;-78
2022/03/04 00:32:33;;;;;;;120.07;107.65;;;4.00;69.50;;;;;;5016112;28;20103;-78
2022/03/04 00:35:02;;;;;;;120.40;108.15;;;4.00;69.30;;;;;;5015914;28;20558;-78
2022/03/04 00:37:28;;;;;;;120.80;108.57;;;4.10;69.20;;;;;;5015774;28;20137;-78
2022/03/04 00:39:55;;;;;;;119.97;107.60;;;4.10;69.10;;;;;;5015573;28;20054;-78
2022/03/04 00:42:22;;;;;;;119.97;107.78;;;4.20;69.00;;;;;;5016007;28;20046;-78
2022/03/04 00:44:49;;;;;;;120.97;108.68;;;4.20;68.90;;;;;;5015820;28;20054;-78
2022/03/04 00:47:16;;;;;;;120.82;108.43;;;4.20;68.80;;;;;;5032060;28;20060;-78
2022/03/04 00:49:43;;;;;;;120.43;108.10;;;4.30;68.60;;;;;;5015848;28;20058;-78
2022/03/04 00:52:11;;;;;;;117.90;105.70;;;4.30;68.50;;;;;;5032290;28;20053;-78
2022/03/04 00:54:38;;;;;;;120.75;108.22;;;4.30;68.30;;;;;;5015720;28;20049;-78
2022/03/04 00:57:05;;;;;;;;;;;4.40;68.40;;;;;;5033944;28;20527;-78
2022/03/04 00:59:32;;;;;;;;;;;4.40;68.10;;;;;;5034437;28;20458;-78
2022/03/04 01:01:58;;;;;;;;;;;4.40;68.00;;;;;;5016087;28;20454;-78
2022/03/04 01:04:25;;;;;;;;;;;4.40;67.80;;;;;;5016172;28;19926;-78
2022/03/04 01:06:52;;;;;;;;;;;4.40;67.70;;;;;;4999828;28;19925;-78
2022/03/04 01:09:20;;;;;;;;;;;4.40;67.70;;;;;;5015813;28;20474;-78
2022/03/04 01:11:47;;;;;;;119.78;107.18;;;4.50;67.60;;;;;;5016121;28;19925;-78
2022/03/04 01:14:14;;;;;;;120.93;108.35;;;4.50;67.50;;;;;;5014721;28;20129;-78
2022/03/04 01:16:41;;;;;;;118.25;106.03;;;4.50;67.50;;;;;;5015507;28;20136;-78
2022/03/04 01:19:08;;;;;;;119.50;107.18;;;4.60;67.60;;;;;;5015100;28;20050;-78
2022/03/04 01:21:35;;;;;;;;;;;4.60;67.50;;;;;;5015456;28;20057;-78
2022/03/04 01:24:03;;;;;;;119.63;107.03;;;4.60;67.30;;;;;;5033790;28;19959;-78
2022/03/04 01:26:32;;;;;;;119.82;107.43;;;4.60;67.40;;;;;;5015010;28;20050;-78
2022/03/04 01:28:59;;;;;;;117.35;105.25;;;4.60;67.60;;;;;;5014963;28;20050;-78
2022/03/04 01:31:26;;;;;;;120.68;108.20;;;4.60;67.40;;;;;;5015121;28;20050;-78
2022/03/04 01:33:53;;;;;;;120.35;108.07;;;4.50;67.20;;;;;;5032988;28;20136;-78
2022/03/04 01:36:20;;;;;;;120.32;108.03;;;4.40;67.30;;;;;;5015024;28;20081;-78
2022/03/04 01:38:47;;;;;;;120.32;107.85;;;4.40;67.70;;;;;;5014341;28;20061;-78
2022/03/04 01:41:13;;;;;;;121.47;108.88;;;4.30;67.60;;;;;;5015273;28;20061;-78
2022/03/04 01:43:42;;;;;;;;;;;4.20;67.80;;;;;;5033175;28;20054;-78
2022/03/04 01:46:14;;;;;;;119.97;107.32;;;4.10;68.10;;;;;;5033163;28;19932;-78
2022/03/04 01:48:42;;;;;;;120.70;108.18;;;4.00;68.10;;;;;;5014806;28;20100;-79
2022/03/04 01:51:10;;;;;;;120.82;108.32;;;3.90;68.10;;;;;;5032661;28;20058;-78
2022/03/04 01:53:37;;;;;;;119.75;107.40;;;3.90;68.30;;;;;;5031421;28;20046;-78
2022/03/04 01:56:04;;;;;;;120.57;107.97;;;3.90;68.40;;;;;;5028755;28;20084;-78
2022/03/04 01:58:31;;;;;;;122.38;109.57;;;3.90;68.50;;;;;;5014542;28;20050;-78
2022/03/04 02:01:00;;;;;;;120.43;107.95;;;3.90;68.50;;;;;;5015054;28;20058;-78
2022/03/04 02:03:27;;;;;;;117.85;105.57;;;3.80;68.50;;;;;;5030853;28;20092;-78
2022/03/04 02:05:53;;;;;;;119.72;107.13;;;3.80;68.50;;;;;;5032991;28;20062;-78
2022/03/04 02:08:20;;;;;;;119.05;106.75;;;3.80;68.80;;;;;;5014016;28;20508;-78
2022/03/04 02:10:47;;;;;;;121.13;108.45;;;3.70;68.80;;;;;;5032500;28;20054;-79
2022/03/04 02:13:16;;;;;;;;;;;3.70;68.80;;;;;;5015274;28;20070;-78
2022/03/04 02:15:44;;;;;;;119.63;106.82;;;3.70;68.60;;;;;;5031153;28;19926;-78
2022/03/04 02:18:14;;;;;;;121.00;108.28;;;3.60;68.80;;;;;;5014391;28;20050;-78
2022/03/04 02:20:44;;;;;;;121.20;108.20;;;3.60;69.00;;;;;;5014490;28;20053;-78
2022/03/04 02:23:13;;;;;;;120.03;107.25;;;3.50;69.20;;;;;;5032444;28;20501;-78
2022/03/04 02:25:42;;;;;;;120.65;108.05;;;3.50;69.40;;;;;;5032122;28;20054;-78
2022/03/04 02:28:09;;;;;;;120.15;107.45;;;3.40;69.70;;;;;;5017171;28;20045;-78
2022/03/04 02:30:36;;;;;;;122.43;109.43;;;3.40;69.60;;;;;;5017801;28;20053;-78
2022/03/04 02:33:05;;;;;;;121.13;108.43;;;3.30;69.80;;;;;;5036095;28;20053;-78
2022/03/04 02:35:33;;;;;;;123.03;109.88;;;3.30;70.00;;;;;;5034636;28;20057;-78
2022/03/04 02:38:00;;;;;;;120.15;107.32;;;3.20;69.90;;;;;;5017268;28;20506;-80
2022/03/04 02:40:28;;;;;;;122.57;109.57;;;3.20;70.00;;;;;;5035765;28;20062;-80
2022/03/04 02:42:56;;;;;;;121.10;108.20;;;3.30;70.40;;;;;;5017406;28;20165;-80
2022/03/04 02:45:23;;;;;;;122.18;109.38;;;3.20;70.90;;;;;;5017580;28;20049;-80
2022/03/04 02:47:50;;;;;;;122.68;109.53;;;3.10;70.40;;;;;;5017305;28;20050;-80
2022/03/04 02:50:17;;;;;;;121.82;108.82;;;3.10;70.60;;;;;;5017406;28;20085;-80
2022/03/04 02:52:44;;;;;;;121.70;108.80;;;3.00;71.10;;;;;;5034699;28;20131;-80
2022/03/04 02:55:11;;;;;;;122.65;109.60;;;2.90;71.20;;;;;;5017291;28;20060;-80
2022/03/04 02:57:42;;;;;;;123.95;110.78;;;2.80;71.40;;;;;;5016155;28;20046;-80
2022/03/04 03:00:10;;;;;;;123.72;110.68;;;2.80;71.70;;;;;;5017789;28;20080;-80
2022/03/04 03:02:38;;;;;;;123.68;110.47;;;2.80;71.80;;;;;;5017255;28;20533;-80
2022/03/04 03:05:05;;;;;;;121.80;108.78;;;2.70;72.00;;;;;;5017177;28;20503;-80
2022/03/04 03:07:32;;;;;;;122.68;109.40;;;2.70;71.90;;;;;;5016775;28;20046;-80
2022/03/04 03:09:59;;;;;;;123.15;110.20;;;2.60;72.20;;;;;;5017305;28;20050;-80
2022/03/04 03:12:28;;;;;;;122.65;109.72;;;2.50;72.70;;;;;;5033962;28;20050;-80
2022/03/04 03:14:56;;;;;;;121.22;108.18;;;2.40;72.90;;;;;;5017379;28;20137;-80
2022/03/04 03:17:23;;;;;;;121.65;108.57;;;2.40;73.40;;;;;;5034630;28;20045;-80
2022/03/04 03:19:50;;;;;;;123.25;110.10;;;2.30;73.20;;;;;;5016939;28;20061;-80
2022/03/04 03:22:18;;;;;;;;;;;2.30;73.60;;;;;;5035818;28;20052;-80
2022/03/04 03:24:45;;;;;;;121.20;108.30;;;2.30;74.40;;;;;;5035274;28;20031;-80
2022/03/04 03:27:12;;;;;;;123.60;110.15;;;2.30;73.70;;;;;;5016702;28;20559;-80
2022/03/04 03:29:39;;;;;;;121.80;108.55;;;2.20;73.70;;;;;;5016874;28;20512;-80
2022/03/04 03:32:10;;;;;;;121.97;108.95;;;2.20;74.10;;;;;;5034952;28;20062;-80
2022/03/04 03:34:37;;;;;;;120.57;107.90;;;2.20;74.20;;;;;;5017258;28;20054;-80
2022/03/04 03:37:04;;;;;;;122.22;109.20;;;2.10;74.10;;;;;;5016158;28;20054;-80
2022/03/04 03:39:31;;;;;;;123.05;109.95;;;2.10;74.40;;;;;;5033425;28;20057;-80
2022/03/04 03:41:58;;;;;;;121.20;108.15;;;2.00;74.50;;;;;;5034551;28;20523;-80
2022/03/04 03:44:25;;;;;;;121.80;108.72;;;2.00;74.50;;;;;;5016801;28;20502;-80
2022/03/04 03:46:52;;;;;;;121.25;108.13;;;2.00;74.60;;;;;;5033370;28;20428;-80
2022/03/04 03:49:21;;;;;;;122.85;109.53;;;2.00;74.70;;;;;;5033249;28;20077;-80
2022/03/04 03:51:48;;;;;;;123.03;110.00;;;2.00;74.70;;;;;;5016459;28;20046;-80
2022/03/04 03:54:16;;;;;;;123.07;109.97;;;2.00;74.80;;;;;;5016371;28;20054;-80
2022/03/04 03:56:43;;;;;;;123.55;110.22;;;1.90;74.90;;;;;;5016842;28;20058;-80
2022/03/04 03:59:10;;;;;;;123.00;109.88;;;2.00;74.80;;;;;;5034094;28;20054;-80
2022/03/04 04:01:38;;;;;;;121.20;108.35;;;2.00;74.80;;;;;;5034062;28;20081;-80
2022/03/04 04:04:06;;;;;;;121.38;108.47;;;2.00;74.70;;;;;;5032979;28;20154;-80
2022/03/04 04:06:35;;;;;;;121.78;108.80;;;2.00;74.60;;;;;;5016058;28;20660;-80
2022/03/04 04:09:02;;;;;;;122.47;109.38;;;2.10;74.40;;;;;;5034136;28;20146;-80
2022/03/04 04:11:30;;;;;;;123.88;110.30;;;2.10;74.30;;;;;;5034314;28;20110;-80
2022/03/04 04:13:57;;;;;;;124.95;111.50;;;2.10;74.00;;;;;;5016447;28;20065;-80
2022/03/04 04:16:24;;;;;;;126.22;111.22;;;2.10;73.90;;;;;;5016193;28;20046;-80
2022/03/04 04:18:51;;;;;;;123.72;110.32;;;2.10;73.90;;;;;;5015463;28;20053;-80
2022/03/04 04:21:18;;;;;;;123.07;109.63;;;2.00;74.10;;;;;;5016350;28;20048;-80
2022/03/04 04:23:46;;;;;;;124.13;110.53;;;2.00;73.80;;;;;;5016336;28;20064;-80
2022/03/04 04:26:13;;;;;;;125.40;111.63;;;2.00;74.00;;;;;;5033714;28;20502;-80
2022/03/04 04:28:40;;;;;;;126.30;112.43;;;2.00;73.90;;;;;;5015954;28;20554;-80
2022/03/04 04:31:07;;;;;;;126.80;113.10;;;1.80;74.60;;;;;;4999640;28;20142;-80
2022/03/04 04:33:34;;;;;;;126.03;112.05;;;1.70;74.80;;;;;;5032708;28;20506;-80
2022/03/04 04:36:01;;;;;;;125.43;111.65;;;1.60;75.30;;;;;;5016255;28;20045;-80
2022/03/04 04:38:27;;;;;;;128.10;112.38;;;1.50;75.40;;;;;;5032053;28;20053;-80
2022/03/04 04:40:56;;;;;;;127.55;112.43;;;1.40;75.50;;;;;;5015802;28;20045;-80
2022/03/04 04:43:23;;;;;;;126.15;112.18;;;1.40;76.00;;;;;;5015755;28;20050;-80
2022/03/04 04:45:50;;;;;;;124.28;110.47;;;1.30;76.40;;;;;;5015993;28;20068;-80
2022/03/04 04:48:17;;;;;;;126.18;112.10;;;1.30;76.40;;;;;;5032471;28;20060;-80
2022/03/04 04:50:44;;;;;;;130.63;113.22;;;1.20;77.00;;;;;;5014915;28;20852;-80
2022/03/04 04:53:11;;;;;;;127.65;112.95;;;1.20;76.80;;;;;;5032065;28;20088;-80
2022/03/04 04:55:38;;;;;;;124.95;111.22;;;1.20;77.30;;;;;;5033468;28;20528;-80
2022/03/04 04:58:07;;;;;;;128.43;111.75;;;1.10;77.70;;;;;;5015411;28;20132;-79
2022/03/04 05:00:34;;;;;;;128.15;112.35;;;1.10;77.60;;;;;;5015428;28;20133;-80
2022/03/04 05:03:00;;;;;;;125.47;111.63;;;1.10;77.50;;;;;;5032387;28;20554;-80
2022/03/04 05:05:27;;;;;;;127.40;111.63;;;1.10;78.00;;;;;;5031982;28;20042;-80
2022/03/04 05:07:54;;;;;;;127.82;111.43;;;1.10;77.90;;;;;;5033022;28;20065;-79
2022/03/04 05:10:21;;;;;;;127.22;113.22;;;1.10;77.90;;;;;;5015560;28;20056;-80
2022/03/04 05:12:48;;;;;;;125.60;110.53;;;1.10;78.50;;;;;;5033464;28;20496;-80
2022/03/04 05:15:17;;;;;;;126.47;111.15;;;1.00;78.60;;;;;;5015531;28;20136;-80
2022/03/04 05:17:44;;;;;;;126.82;110.30;;;1.00;78.50;;;;;;5031477;28;20050;-80
2022/03/04 05:20:12;;;;;;;126.85;112.95;;;1.00;79.30;;;;;;5033235;28;20109;-80
2022/03/04 05:22:39;;;;;;;126.15;111.65;;;1.00;78.90;;;;;;5033317;28;20053;-80
2022/03/04 05:25:07;;;;;;;125.78;111.90;;;1.00;79.20;;;;;;5033032;28;20045;-80
2022/03/04 05:27:34;;;;;;;127.35;111.93;;;1.00;79.80;;;;;;5014501;28;20061;-79
2022/03/04 05:30:01;;;;;;;128.50;112.47;;;1.00;79.40;;;;;;5014908;28;20061;-80
2022/03/04 05:32:29;;;;;;;127.70;112.07;;;0.90;79.50;;;;;;5015240;28;20570;-80
2022/03/04 05:34:56;;;;;;;129.98;113.35;;;1.00;80.10;;;;;;5015317;28;20607;-80
2022/03/04 05:37:23;;;;;;;129.88;111.85;;;1.00;79.70;;;;;;5033273;28;20069;-80
2022/03/04 05:39:52;;;;;;;125.18;110.65;;;0.90;80.00;;;;;;5014993;28;20056;-80
2022/03/04 05:42:19;;;;;;;130.15;112.88;;;1.00;80.00;;;;;;5014814;28;20057;-80
2022/03/04 05:44:46;;;;;;;128.27;113.18;;;1.00;80.20;;;;;;5032987;28;20042;-80
2022/03/04 05:47:14;;;;;;;126.15;111.35;;;1.00;80.90;;;;;;5014703;28;20054;-80
2022/03/04 05:49:42;;;;;;;130.18;112.82;;;1.00;80.40;;;;;;5033002;28;20050;-80
2022/03/04 05:52:09;;;;;;;129.25;113.00;;;1.00;80.60;;;;;;5015279;28;20492;-80
2022/03/04 05:54:36;;;;;;;127.95;113.13;;;0.90;81.00;;;;;;5014027;28;20106;-80
2022/03/04 05:57:04;;;;;;;124.88;110.90;;;0.90;80.70;;;;;;5032812;28;20064;-80
2022/03/04 05:59:31;;;;;;;126.65;109.80;;;0.90;81.20;;;;;;5032481;28;20054;-80
2022/03/04 06:01:58;;;;;;;127.78;111.68;;;0.90;81.20;;;;;;5017247;28;20045;-79
2022/03/04 06:04:25;;;;;;;105.28;91.05;;;0.90;81.30;;;;;;5018824;28;20050;-80
2022/03/04 06:06:53;;;;;;;125.05;111.22;;;0.90;81.60;;;;;;5036505;28;20050;-79
2022/03/04 06:09:21;;;;;;;128.07;111.95;;;0.90;81.50;;;;;;5019183;28;20057;-80
2022/03/04 06:11:48;;;;;;;127.20;111.47;;;0.80;81.60;;;;;;5018824;28;20077;-80
2022/03/04 06:14:15;;;;;;;127.88;111.65;;;0.80;81.60;;;;;;5036751;28;20073;-79
2022/03/04 06:16:42;;;;;;;127.95;111.13;;;0.80;81.90;;;;;;5036673;28;20054;-79
2022/03/04 06:19:09;;;;;;;126.60;110.32;;;0.80;81.90;;;;;;5018640;28;20060;-79
2022/03/04 06:21:36;;;;;;;130.85;112.93;;;0.80;82.00;;;;;;5035379;28;20521;-79
2022/03/04 06:24:05;;;;;;;127.05;111.68;;;0.80;81.80;;;;;;5018642;28;20056;-80
2022/03/04 06:26:32;;;;;;;130.32;113.10;;;0.80;82.20;;;;;;5018751;28;20054;-80
2022/03/04 06:29:00;;;;;;;131.60;111.07;;;0.90;82.70;;;;;;5036192;28;20542;-80
2022/03/04 06:31:26;;;;;;;128.60;111.43;;;0.90;82.60;;;;;;5034970;28;20105;-80
2022/03/04 06:33:53;;;;;;;130.80;113.65;;;0.90;82.70;;;;;;5018636;28;20048;-80
2022/03/04 06:36:20;;;;;;;124.75;111.00;;;0.90;82.70;;;;;;5018744;28;20123;-80
2022/03/04 06:38:48;;;;;;;125.80;111.53;;;0.90;82.90;;;;;;5018231;28;20049;-79
2022/03/04 06:41:17;;;;;;;126.40;111.22;;;0.90;83.00;;;;;;5002068;28;20050;-80
2022/03/04 06:43:45;;;;;;;127.88;113.28;;;1.00;83.10;;;;;;5018497;28;20054;-80
2022/03/04 06:46:12;;;;;;;126.50;111.63;;;1.00;83.20;;;;;;5036398;28;20058;-80
2022/03/04 06:48:39;;;;;;;129.23;112.18;;;1.10;83.40;;;;;;5018465;28;20141;-80
2022/03/04 06:51:06;;;;;;;127.35;112.07;;;1.10;83.50;;;;;;5018708;28;20064;-80
2022/03/04 06:53:33;;;;;;;128.75;112.47;;;1.10;83.60;;;;;;5018459;28;20045;-80
2022/03/04 06:56:00;;;;;;;126.50;112.28;;;1.10;83.70;;;;;;5018335;28;20516;-79
2022/03/04 06:58:29;;;;;;;127.75;113.05;;;1.20;83.20;;;;;;5017970;28;20053;-80
2022/03/04 07:00:56;;;;;;;128.63;114.18;;;1.10;82.90;;;;;;5017903;28;20066;-79
2022/03/04 07:03:24;;;;;;;131.30;114.15;;;1.10;83.00;;;;;;5017874;28;20046;-80
2022/03/04 07:05:51;;;;;;;127.90;112.75;;;1.10;83.10;;;;;;5017819;28;20559;-80
2022/03/04 07:08:18;;;;;;;132.27;112.30;;;1.10;83.30;;;;;;5017950;28;20060;-79
2022/03/04 07:10:45;;;;;;;129.27;114.70;;;1.10;83.70;;;;;;5034087;28;20101;-79
2022/03/04 07:13:13;;;;;;;129.23;112.78;;;1.00;83.80;;;;;;5033533;28;20125;-79
2022/03/04 07:15:42;;;;;;;132.60;114.05;;;1.00;83.70;;;;;;5035607;28;20088;-79
2022/03/04 07:18:10;;;;;;;128.80;112.95;;;1.00;83.70;;;;;;5033975;28;20176;-79
2022/03/04 07:20:37;;;;;;;131.88;113.80;;;0.90;84.30;;;;;;5034201;28;20053;-79
2022/03/04 07:23:05;;;;;;;127.82;112.03;;;0.90;84.60;;;;;;5017856;28;20053;-79
2022/03/04 07:25:32;;;;;;;128.50;112.00;;;0.90;84.30;;;;;;5018102;28;20495;-80
2022/03/04 07:27:59;;;;;;;128.25;112.35;;;0.90;84.50;;;;;;5032469;28;20049;-79
2022/03/04 07:30:26;;;;;;;136.13;118.10;;;0.80;84.60;;;;;;5037305;28;20050;-80
2022/03/04 07:32:55;;;;;;;130.55;114.75;;;0.80;84.70;;;;;;5017084;28;20050;-80
2022/03/04 07:35:23;;;;;;;128.68;112.30;;;0.90;84.60;;;;;;5044622;28;20137;-79
2022/03/04 07:37:50;;;;;;;130.35;113.40;;;0.80;84.90;;;;;;5038039;28;20060;-79
2022/03/04 07:40:17;;;;;;;130.80;114.28;;;0.80;85.00;;;;;;5027333;28;20533;-78
2022/03/04 07:42:44;;;;;;;131.25;113.57;;;0.90;84.90;;;;;;5028108;28;20057;-79
2022/03/04 07:45:12;;;;;;;131.07;113.38;;;0.90;85.60;;;;;;5027574;28;20053;-79
2022/03/04 07:47:41;;;;;;;127.78;112.38;;;0.90;85.30;;;;;;5044374;28;20052;-79
2022/03/04 07:50:12;;;;;;;127.75;112.65;;;0.90;85.60;;;;;;5043429;28;20069;-78
2022/03/04 07:52:40;;;;;;;131.57;116.95;;;0.90;85.90;;;;;;5017112;28;20056;-78
2022/03/04 07:55:08;;;;;;;;;;;0.90;85.80;;;;;;5035463;28;20065;-78
2022/03/04 07:57:36;;;;;;;127.95;110.78;;;1.00;87.00;;;;;;5034873;28;19937;-78
2022/03/04 08:00:05;;;;;;;127.72;112.13;;;1.00;86.90;;;;;;5000989;28;20149;-78
2022/03/04 08:02:39;;;;;;;127.57;112.90;;;1.00;86.70;;;;;;5019909;28;20543;-79
2022/03/04 08:05:08;;;;;;;125.05;111.03;;;1.00;86.40;;;;;;5026975;28;20053;-79
2022/03/04 08:07:37;;;;;;;127.55;111.38;;;1.10;86.50;;;;;;5036538;28;20495;-79
2022/03/04 08:10:05;;;;;;;126.63;112.47;;;1.00;85.90;;;;;;5054869;28;20080;-79
2022/03/04 08:12:32;;;;;;;127.80;112.47;;;1.00;86.00;;;;;;5022508;28;20053;-79
2022/03/04 08:14:59;;;;;;;127.65;113.20;;;1.00;86.00;;;;;;5033307;28;20689;-79
2022/03/04 08:17:26;;;;;;;124.20;110.50;;;1.00;86.20;;;;;;5050160;28;20056;-79
2022/03/04 08:19:55;;;;;;;130.77;110.53;;;1.00;86.40;;;;;;5036821;28;20076;-79
2022/03/04 08:22:22;;;;;;;125.47;111.68;;;1.00;86.40;;;;;;5037567;28;20057;-79
2022/03/04 08:24:50;;;;;;;129.63;112.10;;;1.00;86.20;;;;;;5016968;28;20080;-78
2022/03/04 08:27:17;;;;;;;128.32;113.78;;;1.00;86.10;;;;;;5016950;28;20530;-79
2022/03/04 08:29:44;;;;;;;126.72;112.80;;;1.00;86.00;;;;;;5033362;28;20140;-78
2022/03/04 08:32:11;;;;;;;131.40;114.40;;;1.10;86.50;;;;;;5016807;28;20050;-79
2022/03/04 08:34:39;;;;;;;126.88;112.43;;;1.10;86.70;;;;;;5033304;28;20083;-79
2022/03/04 08:37:06;;;;;;;128.35;114.13;;;1.20;86.80;;;;;;5017145;28;20046;-78
2022/03/04 08:39:33;;;;;;;132.32;116.03;;;1.20;87.00;;;;;;5034265;28;20153;-79
2022/03/04 08:42:01;;;;;;;129.25;113.88;;;1.30;87.00;;;;;;5016527;28;20038;-79
2022/03/04 08:44:28;;;;;;;127.97;113.88;;;1.40;87.00;;;;;;5016410;28;20050;-79
2022/03/04 08:46:55;;;;;;;128.00;114.03;;;1.50;87.30;;;;;;5034590;28;20154;-79
2022/03/04 08:49:22;;;;;;;128.10;114.03;;;1.60;87.40;;;;;;5015601;28;20054;-79
2022/03/04 08:51:50;;;;;;;126.57;112.55;;;1.60;87.70;;;;;;5016745;28;20061;-79
2022/03/04 08:54:17;;;;;;;125.68;112.00;;;1.70;87.90;;;;;;5034414;28;20053;-79
2022/03/04 08:56:45;;;;;;;127.93;113.93;;;1.70;87.70;;;;;;5034452;28;20570;-79
2022/03/04 08:59:13;;;;;;;125.90;111.93;;;1.80;87.50;;;;;;5016479;28;20781;-79
2022/03/04 09:01:40;;;;;;;125.68;112.18;;;1.80;87.30;;;;;;5016447;28;20113;-79
2022/03/04 09:04:07;;;;;;;130.25;115.20;;;1.80;87.30;;;;;;5016444;28;20412;-80
2022/03/04 09:06:34;;;;;;;128.15;114.35;;;1.90;87.20;;;;;;5015328;28;20149;-79
2022/03/04 09:09:02;;;;;;;;;;;1.90;87.20;;;;;;5015969;28;20062;-79
2022/03/04 09:11:29;;;;;;;127.68;111.60;;;2.00;87.50;;;;;;5015470;28;20322;-79
2022/03/04 09:13:56;;;;;;;128.40;114.32;;;2.00;87.30;;;;;;5033084;28;20152;-76
2022/03/04 09:16:25;;;;;;;126.50;112.50;;;2.10;87.20;;;;;;5014512;28;20056;-80
2022/03/04 09:18:52;;;;;;;127.93;114.13;;;2.10;87.80;;;;;;5015369;28;20472;-77
2022/03/04 09:21:19;;;;;;;126.88;112.90;;;2.10;87.80;;;;;;5014863;28;20598;-78
2022/03/04 09:23:46;;;;;;;127.32;113.28;;;2.20;87.80;;;;;;5033586;28;20053;-79
2022/03/04 09:26:13;;;;;;;127.82;112.85;;;2.20;87.70;;;;;;5015757;28;20135;-79
2022/03/04 09:28:40;;;;;;;128.10;113.95;;;2.30;87.90;;;;;;5015454;28;20073;-77
2022/03/04 09:31:07;;;;;;;127.07;113.38;;;2.30;88.00;;;;;;5015118;28;21923;-77
2022/03/04 09:33:36;;;;;;;;;;;2.40;88.20;;;;;;5004516;28;20551;-75
2022/03/04 09:36:04;;;;;;;127.90;111.47;;;2.40;88.60;;;;;;5032322;28;19925;-77
2022/03/04 09:38:31;;;;;;;125.43;111.82;;;2.50;88.60;;;;;;5031691;28;20092;-79
2022/03/04 09:40:59;;;;;;;127.50;113.85;;;2.50;88.20;;;;;;5014997;28;20054;-78
2022/03/04 09:43:27;;;;;;;127.20;113.55;;;2.60;88.00;;;;;;5014908;28;20461;-78
2022/03/04 09:45:54;;;;;;;128.55;114.57;;;2.60;88.00;;;;;;5014816;28;20134;-80
2022/03/04 09:48:22;;;;;;;128.00;114.15;;;2.60;88.00;;;;;;5015133;28;20060;-77
2022/03/04 09:50:51;;;;;;;127.78;113.78;;;2.60;88.10;;;;;;5015326;28;20054;-77
2022/03/04 09:53:18;;;;;;;127.65;113.78;;;2.70;88.30;;;;;;5015058;28;20125;-76
2022/03/04 09:55:46;;;;;;;127.25;113.65;;;2.70;88.20;;;;;;5015005;28;20046;-78
2022/03/04 09:58:15;;;;;;;127.38;113.63;;;2.70;88.10;;;;;;5032073;28;20127;-77
2022/03/04 10:00:43;;;;;;;127.63;113.72;;;2.80;88.20;;;;;;5014435;28;20054;-78
2022/03/04 10:03:20;;;;;;;126.93;113.32;;;2.80;88.30;;;;;;5014837;28;20133;-78
2022/03/04 10:05:56;;;;;;;126.95;113.30;;;2.90;88.40;;;;;;5014766;28;20054;-81
2022/03/04 10:08:24;;;;;;;126.22;112.80;;;2.90;88.10;;;;;;5031648;28;20054;-81
2022/03/04 10:10:52;;;;;;;125.68;112.13;;;3.00;88.70;;;;;;5014315;28;20080;-80
2022/03/04 10:13:40;;;;;;;127.57;113.97;;;3.10;88.80;;;;;;5014709;28;20081;-80
2022/03/04 10:16:07;;;;;;;126.85;113.15;;;3.10;88.40;;;;;;5014618;28;20056;-80
2022/03/04 10:18:34;;;;;;;127.32;113.82;;;3.20;88.20;;;;;;5014836;28;20064;-82
2022/03/04 10:21:02;;;;;;;128.77;114.97;;;3.30;88.30;;;;;;5014181;28;20579;-81
2022/03/04 10:23:30;;;;;;;128.10;114.53;;;3.40;88.90;;;;;;5030455;28;20058;-79
2022/03/04 10:25:59;;;;;;;126.95;113.35;;;3.50;89.00;;;;;;5014743;28;20061;-81
2022/03/04 10:28:29;;;;;;;126.95;113.35;;;3.60;88.40;;;;;;5025468;28;20130;-80
2022/03/04 10:30:57;;;;;;;126.50;113.15;;;3.60;88.00;;;;;;5031764;28;20780;-78
2022/03/04 10:33:26;;;;;;;125.75;112.47;;;3.70;88.10;;;;;;5014615;28;20053;-79
2022/03/04 10:36:09;;;;;;;130.57;116.78;;;3.80;88.20;;;;;;5014685;28;20056;-79
2022/03/04 10:38:37;;;;;;;127.70;114.15;;;3.80;88.60;;;;;;5032417;28;20105;-79
2022/03/04 10:41:22;;;;;;;128.43;114.93;;;3.90;88.50;;;;;;5032292;28;20527;-80
2022/03/04 10:43:51;;;;;;;131.18;117.28;;;4.00;88.50;;;;;;5014614;28;20046;-79
2022/03/04 10:46:18;;;;;;;129.32;115.63;;;4.10;88.60;;;;;;5014625;28;20129;-78
2022/03/04 10:48:53;;;;;;;127.40;113.97;;;4.20;88.70;;;;;;5016341;28;20512;-79
2022/03/04 10:51:39;;;;;;;127.80;114.20;;;4.40;88.80;;;;;;5018023;28;20050;-77
2022/03/04 10:54:17;;;;;;;131.23;116.88;;;4.50;88.20;;;;;;5017670;28;20050;-78
2022/03/04 10:56:54;;;;;;;131.07;117.15;;;4.60;88.50;;;;;;5034271;28;20076;-80
2022/03/04 10:59:21;;;;;;;;;;;4.70;88.20;;;;;;5034671;28;20112;-80
2022/03/04 11:01:48;;;;;;;130.52;116.45;;;4.70;89.10;;;;;;4998070;28;19930;-79
2022/03/04 11:04:18;;;;;;;129.85;116.20;;;4.90;88.50;;;;;;4997723;28;20517;-83
2022/03/04 11:06:47;;;;;;;130.10;116.30;;;5.00;88.20;;;;;;4997524;28;20045;-84
2022/03/04 11:09:15;;;;;;;134.02;119.95;;;5.10;88.10;;;;;;4996949;28;20177;-82
2022/03/04 11:11:43;;;;;;;130.02;116.03;;;5.10;87.90;;;;;;5015663;28;20054;-82
2022/03/04 11:14:12;;;;;;;130.13;115.90;;;5.20;87.80;;;;;;5017189;28;20053;-82
2022/03/04 11:16:41;;;;;;;138.60;116.70;;;5.30;88.00;;;;;;5017182;28;20472;-81
2022/03/04 11:19:08;;;;;;;129.82;116.38;;;5.40;88.00;;;;;;5017303;28;20056;-82
2022/03/04 11:21:36;;;;;;;131.23;117.30;;;5.40;87.90;;;;;;5017347;28;20049;-82
2022/03/04 11:24:05;;;;;;;129.75;116.20;;;5.50;88.00;;;;;;5017165;28;20054;-82
2022/03/04 11:26:32;;;;;;;129.30;115.80;;;5.70;88.00;;;;;;5016053;28;20812;-80
2022/03/04 11:29:02;;;;;;;130.15;116.65;;;5.80;87.80;;;;;;5016495;28;20054;-82
2022/03/04 11:31:31;;;;;;;129.52;116.10;;;5.90;87.80;;;;;;5015111;28;20054;-82
2022/03/04 11:34:00;;;;;;;128.93;115.25;;;6.00;87.90;;;;;;5016997;28;20137;-81
2022/03/04 11:36:29;;;;;;;128.50;115.05;;;6.20;87.50;;;;;;5016788;28;20064;-81
2022/03/04 11:39:00;;;;;;;128.07;114.75;;;6.30;87.50;;;;;;5016848;28;20420;-83
2022/03/04 11:41:37;;;;;;;127.43;114.35;;;6.40;87.10;;;;;;5017018;28;20188;-81
2022/03/04 11:44:17;;;;;;;128.95;115.43;;;6.50;87.20;;;;;;5017353;28;20061;-81
2022/03/04 11:46:48;;;;;;;129.10;115.72;;;6.60;86.90;;;;;;5033269;28;20132;-79
2022/03/04 11:49:43;;;;;;;128.20;114.80;;;6.70;86.70;;;;;;5016942;28;20507;-81
2022/03/04 11:52:24;;;;;;;128.60;115.18;;;6.80;86.60;;;;;;5016941;28;20130;-81
2022/03/04 11:55:16;;;;;;;129.27;116.00;;;7.00;86.20;;;;;;5013679;28;20133;-81
2022/03/04 11:57:46;;;;;;;128.23;114.80;;;7.00;85.50;;;;;;5016047;28;20106;-81
2022/03/04 12:00:25;;;;;;;128.90;115.88;;;7.10;85.50;;;;;;5016525;28;20113;-81
2022/03/04 12:02:54;;;;;;;127.75;114.82;;;7.20;85.40;;;;;;5016909;28;20061;-80
2022/03/04 12:05:45;;;;;;;128.48;115.32;;;7.40;85.00;;;;;;5016399;28;20050;-81
2022/03/04 12:08:14;;;;;;;129.52;116.53;;;7.50;83.50;;;;;;5015574;28;20060;-83
2022/03/04 12:10:52;;;;;;;125.65;112.85;;;7.60;85.10;;;;;;5016378;28;20137;-80
2022/03/04 12:13:25;;;;;;;125.85;112.85;;;7.80;84.90;;;;;;5015652;28;20070;-83
2022/03/04 12:15:58;;;;;;;126.90;114.18;;;7.90;83.90;;;;;;5016444;28;20115;-77
2022/03/04 12:18:52;;;;;;;124.60;111.85;;;8.00;83.30;;;;;;5033217;28;20112;-83
2022/03/04 12:21:27;;;;;;;125.35;112.68;;;8.10;81.90;;;;;;5014851;28;20445;-83
2022/03/04 12:24:00;;;;;;;125.40;112.63;;;8.20;83.10;;;;;;5032921;28;20460;-83
2022/03/04 12:26:35;;;;;;;124.45;112.07;;;8.40;82.70;;;;;;5015487;28;20057;-83
2022/03/04 12:29:06;;;;;;;123.18;110.90;;;8.50;83.00;;;;;;5016825;28;20081;-83